Data for 11/26/2014

Time Sea-Level Adjusted Pressure Absolute Pressure Temperature Relative Humidity Dew Point   
(mb) (inHg) (mb) (inHg) (C) (F) (%) (C) (F)
00:05 1021 30.15 850 25.1 -1.8 28.7 95 -2.5 27.6
00:10 1021 30.15 850 25.1 -1.8 28.7 95 -2.5 27.5
00:15 1021 30.15 850 25.1 -1.8 28.8 95 -2.5 27.6
00:20 1021 30.15 850 25.1 -1.8 28.8 95 -2.5 27.6
00:25 1021 30.15 850 25.1 -1.8 28.8 95 -2.4 27.6
00:30 1021 30.15 850 25.1 -1.8 28.8 95 -2.4 27.6
00:35 1021 30.15 850 25.1 -1.8 28.8 95 -2.4 27.7
00:40 1021 30.15 850 25.1 -1.8 28.8 95 -2.4 27.7
00:45 1021 30.15 850 25.1 -1.9 28.7 95 -2.5 27.5
00:50 1021 30.15 850 25.1 -1.9 28.6 95 -2.6 27.4
00:55 1021 30.15 850 25.1 -1.9 28.5 95 -2.6 27.3
01:00 1021 30.15 850 25.1 -2 28.5 95 -2.6 27.3
01:05 1021 30.15 850 25.1 -1.9 28.5 95 -2.6 27.3
01:10 1021 30.15 850 25.1 -1.9 28.5 95 -2.6 27.4
01:15 1021 30.15 850 25.1 -2 28.5 95 -2.6 27.3
01:20 1021 30.15 850 25.1 -2 28.4 95 -2.7 27.2
01:25 1021 30.15 850 25.1 -2.1 28.2 95 -2.7 27.1
01:30 1021 30.15 850 25.1 -2.1 28.2 95 -2.7 27.1
01:35 1021 30.15 850 25.1 -2.1 28.2 95 -2.7 27.1
01:40 1020 30.12 850 25.1 -2.1 28.2 95 -2.8 27
01:45 1020 30.12 850 25.1 -2.1 28.2 95 -2.8 27
01:50 1020 30.12 849 25.07 -2.1 28.2 95 -2.8 27
01:55 1020 30.12 850 25.1 -2.1 28.3 95 -2.7 27.1
02:00 1020 30.12 850 25.1 -2.1 28.3 95 -2.7 27.1
02:05 1020 30.12 850 25.1 -2.1 28.3 95 -2.7 27.1
02:10 1020 30.12 850 25.1 -2.1 28.3 95 -2.7 27.1
02:15 1020 30.12 850 25.1 -2.1 28.2 95 -2.7 27.1
02:20 1020 30.12 850 25.1 -2.1 28.2 95 -2.8 27
02:25 1020 30.12 850 25.1 -2.3 27.9 95 -2.9 26.7
02:30 1020 30.12 849 25.07 -2.4 27.7 95 -3.1 26.4
02:35 1020 30.12 849 25.07 -2.6 27.4 95 -3.3 26.1
02:40 1020 30.12 849 25.07 -2.7 27.2 95 -3.4 25.9
02:45 1020 30.12 849 25.07 -2.7 27.1 95 -3.5 25.8
02:50 1020 30.12 849 25.07 -2.8 27 95 -3.5 25.7
02:55 1020 30.12 849 25.07 -2.8 26.9 95 -3.6 25.6
03:00 1020 30.12 849 25.07 -2.9 26.8 95 -3.6 25.5
03:05 1020 30.12 849 25.07 -2.9 26.8 95 -3.6 25.5
03:10 1020 30.12 849 25.07 -2.9 26.8 95 -3.6 25.5
03:15 1020 30.12 849 25.07 -2.9 26.8 95 -3.7 25.4
03:20 1020 30.12 849 25.07 -2.9 26.8 95 -3.7 25.4
03:25 1020 30.12 849 25.07 -2.9 26.8 95 -3.7 25.4
03:30 1020 30.12 849 25.07 -2.9 26.7 95 -3.7 25.4
03:35 1020 30.12 849 25.07 -2.9 26.7 94 -3.7 25.3
03:40 1020 30.12 849 25.07 -3 26.6 94 -3.8 25.2
03:45 1020 30.12 849 25.07 -2.9 26.7 94 -3.7 25.3
03:50 1020 30.12 849 25.07 -2.9 26.7 94 -3.7 25.3
03:55 1020 30.12 849 25.07 -2.9 26.7 94 -3.8 25.2
04:00 1020 30.12 849 25.07 -2.9 26.7 94 -3.7 25.3
04:05 1020 30.12 849 25.07 -2.9 26.7 94 -3.8 25.2
04:10 1020 30.12 849 25.07 -2.9 26.7 94 -3.7 25.3
04:15 1020 30.12 849 25.07 -2.9 26.8 94 -3.7 25.3
04:20 1020 30.12 849 25.07 -2.9 26.8 94 -3.8 25.2
04:25 1020 30.12 849 25.07 -2.9 26.8 93 -3.8 25.1
04:30 1020 30.12 849 25.07 -2.9 26.8 93 -3.8 25.1
04:35 1020 30.12 849 25.07 -2.9 26.8 93 -3.8 25.1
04:40 1020 30.12 849 25.07 -2.9 26.8 93 -3.8 25.1
04:45 1020 30.12 849 25.07 -2.9 26.8 93 -3.8 25.1
04:50 1020 30.12 849 25.07 -2.9 26.8 94 -3.8 25.1
04:55 1020 30.12 849 25.07 -2.9 26.8 94 -3.8 25.2
05:00 1020 30.12 849 25.07 -2.9 26.8 94 -3.7 25.3
05:05 1020 30.12 849 25.07 -2.9 26.8 94 -3.8 25.2
05:10 1020 30.12 849 25.07 -3 26.7 94 -3.8 25.1
05:15 1020 30.12 849 25.07 -3 26.6 94 -3.8 25.1
05:20 1020 30.12 849 25.07 -3 26.6 94 -3.9 25
05:25 1020 30.12 849 25.07 -3 26.5 94 -3.9 24.9
05:30 1020 30.12 849 25.07 -3 26.5 94 -3.9 24.9
05:35 1020 30.12 849 25.07 -3 26.5 94 -3.9 25
05:40 1020 30.12 849 25.07 -3 26.6 94 -3.9 25
05:45 1020 30.12 849 25.07 -3 26.5 94 -3.9 25
05:50 1020 30.12 849 25.07 -3 26.6 94 -3.8 25.1
05:55 1020 30.12 849 25.07 -3 26.6 94 -3.8 25.1
06:00 1020 30.12 849 25.07 -3 26.6 94 -3.9 25
06:05 1020 30.12 849 25.07 -3.1 26.5 94 -3.9 24.9
06:10 1020 30.12 849 25.07 -3.1 26.5 93 -4 24.8
06:15 1020 30.12 849 25.07 -3.1 26.5 93 -4 24.8
06:20 1020 30.12 849 25.07 -3.1 26.5 94 -3.9 24.9
06:25 1020 30.12 849 25.07 -3.1 26.4 94 -4 24.8
06:30 1020 30.12 849 25.07 -3.1 26.4 94 -4 24.8
06:35 1020 30.12 849 25.07 -3.1 26.4 94 -4 24.8
06:40 1020 30.12 849 25.07 -3.1 26.4 94 -4 24.8
06:45 1020 30.12 849 25.07 -3.1 26.4 94 -4 24.8
06:50 1020 30.12 849 25.07 -3.1 26.4 94 -4 24.9
06:55 1020 30.12 849 25.07 -3.1 26.5 94 -3.9 24.9
07:00 1020 30.12 849 25.07 -3.1 26.5 94 -3.9 24.9
07:05 1020 30.12 849 25.07 -3.1 26.4 94 -4 24.8
07:10 1020 30.12 849 25.07 -3.1 26.3 94 -4 24.7
07:15 1020 30.12 849 25.07 -3.2 26.3 94 -4 24.7
07:20 1020 30.12 849 25.07 -3.2 26.3 94 -4.1 24.7
07:25 1020 30.12 849 25.07 -3.2 26.3 94 -4.1 24.7
07:30 1020 30.12 849 25.07 -3.2 26.2 94 -4.1 24.7
07:35 1020 30.12 849 25.07 -3.2 26.3 94 -4.1 24.7
07:40 1020 30.12 849 25.07 -3.2 26.2 94 -4.1 24.6
07:45 1020 30.12 849 25.07 -3.2 26.2 93 -4.2 24.4
07:50 1020 30.12 849 25.07 -3.2 26.2 93 -4.2 24.5
07:55 1020 30.12 849 25.07 -3.2 26.2 93 -4.2 24.5
08:00 1020 30.12 849 25.07 -3.2 26.2 93 -4.2 24.5
08:05 1020 30.12 849 25.07 -3.2 26.3 93 -4.1 24.6
08:10 1020 30.12 850 25.1 -3.2 26.3 93 -4.1 24.6
08:15 1020 30.12 850 25.1 -3.2 26.3 93 -4.1 24.6
08:20 1020 30.12 850 25.1 -3.2 26.3 93 -4.1 24.6
08:25 1020 30.12 850 25.1 -3.1 26.4 93 -4.1 24.7
08:30 1020 30.12 850 25.1 -3.1 26.4 93 -4 24.8
08:35 1020 30.12 850 25.1 -3.1 26.4 93 -4 24.8
08:40 1020 30.12 850 25.1 -3.1 26.4 94 -4 24.7
08:45 1021 30.15 850 25.1 -3.1 26.4 94 -4 24.8
08:50 1021 30.15 850 25.1 -3.1 26.4 94 -4 24.8
08:55 1021 30.15 850 25.1 -3.1 26.4 94 -4 24.8
09:00 1021 30.15 850 25.1 -3.1 26.4 94 -4 24.8
09:05 1021 30.15 850 25.1 -3 26.5 94 -3.9 24.9
09:10 1021 30.15 850 25.1 -2.9 26.7 93 -3.9 25
09:15 1021 30.15 850 25.1 -2.9 26.7 93 -4 24.9
09:20 1021 30.15 850 25.1 -2.9 26.7 93 -3.9 24.9
09:25 1021 30.15 850 25.1 -2.9 26.8 92 -4 24.8
09:30 1021 30.15 850 25.1 -2.9 26.8 93 -4 24.9
09:35 1021 30.15 850 25.1 -2.8 27 93 -3.8 25.1
09:40 1021 30.15 850 25.1 -2.6 27.2 93 -3.6 25.4
09:45 1021 30.15 850 25.1 -2.6 27.4 93 -3.6 25.5
09:50 1021 30.15 850 25.1 -2.5 27.6 92 -3.6 25.5
09:55 1021 30.15 850 25.1 -2.5 27.6 92 -3.6 25.5
10:00 1021 30.15 850 25.1 -2.5 27.5 92 -3.6 25.6
10:05 1021 30.15 850 25.1 -2.4 27.6 92 -3.6 25.6
10:10 1021 30.15 850 25.1 -2.4 27.6 92 -3.6 25.6
10:15 1021 30.15 850 25.1 -2.3 27.9 92 -3.4 25.9
10:20 1021 30.15 850 25.1 -2 28.3 91 -3.3 26.1
10:25 1021 30.15 850 25.1 -2 28.4 90 -3.4 25.9
10:30 1021 30.15 850 25.1 -1.7 28.9 90 -3.2 26.3
10:35 1021 30.15 850 25.1 -1.6 29.1 89 -3.2 26.2
10:40 1021 30.15 850 25.1 -1.5 29.2 89 -3.2 26.3
10:45 1021 30.15 850 25.1 -1.3 29.7 89 -2.9 26.7
10:50 1021 30.15 850 25.1 -1 30.1 88 -2.7 27.1
10:55 1021 30.15 850 25.1 -0.7 30.8 88 -2.4 27.7
11:00 1021 30.15 850 25.1 -0.3 31.5 87 -2.2 28
11:05 1021 30.15 850 25.1 -0.2 31.6 86 -2.3 27.8
11:10 1021 30.15 850 25.1 -0.4 31.4 86 -2.4 27.6
11:15 1021 30.15 850 25.1 -0.6 31 86 -2.7 27.2
11:20 1021 30.15 850 25.1 -0.8 30.6 86 -2.8 27
11:25 1021 30.15 850 25.1 -0.9 30.4 85 -3 26.5
11:30 1021 30.15 850 25.1 -1.2 29.8 87 -3.1 26.5
11:35 1021 30.15 850 25.1 -1.2 29.9 86 -3.2 26.2
11:40 1021 30.15 850 25.1 -1.3 29.7 88 -3 26.6
11:45 1021 30.15 850 25.1 -0.8 30.5 87 -2.8 27
11:50 1021 30.15 850 25.1 -0.6 30.8 87 -2.5 27.4
11:55 1021 30.15 850 25.1 -0.3 31.4 86 -2.4 27.7
12:00 1021 30.15 850 25.1 -0.2 31.7 85 -2.4 27.7
12:05 1021 30.15 850 25.1 -0.1 31.8 85 -2.4 27.7
12:10 1021 30.15 850 25.1 -0.1 31.8 84 -2.5 27.5
12:15 1021 30.15 850 25.1 -0.2 31.6 85 -2.5 27.6
12:20 1021 30.15 850 25.1 -0.3 31.5 85 -2.4 27.6
12:25 1021 30.15 850 25.1 -0.3 31.4 85 -2.6 27.2
12:30 1021 30.15 850 25.1 -0.4 31.2 85 -2.7 27.1
12:35 1021 30.15 850 25.1 -0.8 30.6 86 -2.9 26.8
12:40 1021 30.15 850 25.1 -1 30.3 87 -2.9 26.8
12:45 1021 30.15 850 25.1 -0.8 30.5 87 -2.8 27
12:50 1021 30.15 850 25.1 -0.5 31 87 -2.4 27.6
12:55 1021 30.15 850 25.1 -0.2 31.6 86 -2.3 27.9
13:00 1021 30.15 850 25.1 -0.1 31.9 86 -2.2 28.1
13:05 1021 30.15 850 25.1 0.3 32.5 85 -2 28.4
13:10 1021 30.15 850 25.1 0.6 33 84 -1.9 28.7
13:15 1021 30.15 850 25.1 0.4 32.7 84 -2 28.4
13:20 1021 30.15 850 25.1 -0 32 86 -2.1 28.2
13:25 1021 30.15 850 25.1 -0.3 31.5 87 -2.2 28
13:30 1021 30.15 850 25.1 -0.4 31.2 88 -2.1 28.2
13:35 1021 30.15 850 25.1 -0.4 31.2 88 -2.2 28
13:40 1021 30.15 850 25.1 -0.6 30.9 89 -2.3 27.9
13:45 1021 30.15 850 25.1 -0.6 30.9 89 -2.2 28
13:50 1021 30.15 850 25.1 -0.7 30.8 88 -2.4 27.7
13:55 1021 30.15 850 25.1 -0.6 30.9 89 -2.2 28.1
14:00 1021 30.15 850 25.1 -0.2 31.6 86 -2.3 27.9
14:05 1021 30.15 850 25.1 -0.3 31.4 87 -2.2 28
14:10 1021 30.15 850 25.1 -0.4 31.4 88 -2.1 28.2
14:15 1021 30.15 850 25.1 -0.4 31.2 88 -2.2 28
14:20 1021 30.15 850 25.1 -0.3 31.4 88 -2.1 28.3
14:25 1021 30.15 850 25.1 -0.1 31.8 89 -1.7 29
14:30 1021 30.15 850 25.1 0.2 32.3 88 -1.6 29
14:35 1021 30.15 850 25.1 0.2 32.4 88 -1.6 29.2
14:40 1021 30.15 850 25.1 0.3 32.5 88 -1.5 29.3
14:45 1021 30.15 850 25.1 0.4 32.8 86 -1.6 29.1
14:50 1021 30.15 850 25.1 0.3 32.6 86 -1.8 28.8
14:55 1021 30.15 850 25.1 0.4 32.7 87 -1.6 29.1
15:00 1021 30.15 850 25.1 0.5 32.9 88 -1.3 29.7
15:05 1021 30.15 850 25.1 0.6 33.1 86 -1.5 29.3
15:10 1021 30.15 850 25.1 0.6 33 84 -1.9 28.6
15:15 1021 30.15 850 25.1 0.8 33.5 85 -1.5 29.4
15:20 1021 30.15 850 25.1 1 33.8 84 -1.4 29.5
15:25 1021 30.15 850 25.1 1 33.9 84 -1.4 29.5
15:30 1021 30.15 850 25.1 1.1 34 84 -1.2 29.8
15:35 1021 30.15 850 25.1 0.9 33.6 86 -1.2 29.8
15:40 1021 30.15 850 25.1 1 33.8 85 -1.3 29.6
15:45 1021 30.15 850 25.1 1.3 34.4 83 -1.3 29.7
15:50 1021 30.15 850 25.1 1.5 34.8 80 -1.6 29.2
15:55 1021 30.15 850 25.1 1.6 34.8 82 -1.2 29.8
16:00 1021 30.15 850 25.1 1.5 34.6 80 -1.5 29.2
16:05 1021 30.15 850 25.1 1.7 35.1 78 -1.7 28.9
16:10 1021 30.15 850 25.1 1.9 35.5 76 -1.8 28.7
16:15 1021 30.15 850 25.1 2.3 36.1 77 -1.4 29.6
16:20 1021 30.15 850 25.1 2.4 36.3 75 -1.6 29
16:25 1021 30.15 850 25.1 2.7 36.8 75 -1.3 29.6
16:30 1021 30.15 850 25.1 2.6 36.7 75 -1.4 29.5
16:35 1021 30.15 850 25.1 2.8 37 74 -1.4 29.4
16:40 1021 30.15 850 25.1 2.6 36.7 73 -1.7 28.9
16:45 1021 30.15 850 25.1 3 37.4 71 -1.7 29
16:50 1021 30.15 850 25.1 3 37.4 75 -1.1 30.1
16:55 1021 30.15 850 25.1 2.5 36.4 77 -1.2 29.8
17:00 1021 30.15 850 25.1 2.3 36.2 78 -1.1 30
17:05 1021 30.15 850 25.1 2.1 35.8 80 -1.1 30.1
17:10 1021 30.15 850 25.1 2.3 36.1 76 -1.5 29.3
17:15 1021 30.15 850 25.1 2.7 36.8 74 -1.6 29.1
17:20 1021 30.15 850 25.1 3 37.4 74 -1.2 29.9
17:25 1021 30.15 850 25.1 3 37.4 68 -2.2 28
17:30 1021 30.15 851 25.13 4.3 39.8 65 -1.6 29.2
17:35 1021 30.15 851 25.13 4.9 40.8 64 -1.2 29.8
17:40 1021 30.15 851 25.13 5 41 65 -1 30.2
17:45 1021 30.15 851 25.13 4.8 40.7 66 -1 30.2
17:50 1021 30.15 851 25.13 4 39.3 71 -0.8 30.5
17:55 1021 30.15 851 25.13 3.6 38.5 72 -1.1 30.1
18:00 1021 30.15 851 25.13 3.8 38.8 68 -1.6 29.1
18:05 1021 30.15 850 25.1 4.4 39.9 66 -1.5 29.3
18:10 1021 30.15 850 25.1 4.5 40 66 -1.3 29.6
18:15 1021 30.15 850 25.1 4.4 39.9 67 -1.1 29.9
18:20 1021 30.15 850 25.1 4.4 40 68 -1 30.2
18:25 1021 30.15 850 25.1 4.6 40.2 65 -1.4 29.5
18:30 1021 30.15 850 25.1 4.6 40.3 65 -1.3 29.7
18:35 1021 30.15 850 25.1 4.6 40.3 66 -1.2 29.9
18:40 1021 30.15 850 25.1 4.6 40.3 66 -1.2 29.8
18:45 1021 30.15 850 25.1 4.7 40.4 66 -1.1 30
18:50 1021 30.15 850 25.1 4.5 40.1 67 -1.1 29.9
18:55 1021 30.15 850 25.1 4.5 40.1 67 -1.2 29.9
19:00 1021 30.15 850 25.1 4.5 40.2 65 -1.5 29.2
19:05 1021 30.15 850 25.1 4.6 40.2 67 -1.1 30.1
19:10 1021 30.15 850 25.1 4.4 39.9 66 -1.3 29.6
19:15 1021 30.15 850 25.1 4.4 39.9 66 -1.3 29.6
19:20 1021 30.15 850 25.1 4.4 39.9 66 -1.5 29.3
19:25 1021 30.15 850 25.1 4.6 40.2 65 -1.4 29.5
19:30 1021 30.15 850 25.1 4.8 40.7 64 -1.5 29.3
19:35 1021 30.15 850 25.1 5.1 41.2 64 -1.2 29.8
19:40 1021 30.15 850 25.1 4.9 40.8 66 -0.8 30.5
19:45 1021 30.15 850 25.1 4.6 40.2 66 -1.3 29.6
19:50 1021 30.15 850 25.1 4.8 40.7 64 -1.4 29.5
19:55 1021 30.15 850 25.1 5.1 41.3 63 -1.4 29.5
20:00 1021 30.15 850 25.1 5.1 41.2 63 -1.3 29.6
20:05 1021 30.15 850 25.1 5.1 41.2 64 -1.1 30.1
20:10 1021 30.15 850 25.1 5.1 41.3 63 -1.4 29.5
20:15 1021 30.15 850 25.1 5.1 41.3 63 -1.4 29.6
20:20 1021 30.15 850 25.1 5.1 41.1 63 -1.4 29.5
20:25 1021 30.15 850 25.1 5 41.1 63 -1.5 29.3
20:30 1021 30.15 850 25.1 5.2 41.3 61 -1.8 28.8
20:35 1020 30.12 850 25.1 5.4 41.8 59 -1.8 28.7
20:40 1020 30.12 850 25.1 5.4 41.7 64 -0.8 30.6
20:45 1020 30.12 850 25.1 4.7 40.5 64 -1.4 29.4
20:50 1020 30.12 850 25.1 4.7 40.4 63 -1.7 28.9
20:55 1020 30.12 850 25.1 4.6 40.3 64 -1.6 29
21:00 1020 30.12 850 25.1 4.7 40.4 64 -1.5 29.2
21:05 1020 30.12 850 25.1 4.7 40.4 64 -1.5 29.2
21:10 1020 30.12 850 25.1 4.6 40.4 64 -1.5 29.3
21:15 1020 30.12 849 25.07 4.4 39.9 65 -1.6 29.2
21:20 1020 30.12 849 25.07 4.4 39.8 67 -1.3 29.7
21:25 1020 30.12 850 25.1 4 39.3 68 -1.4 29.5
21:30 1020 30.12 850 25.1 4 39.1 65 -1.9 28.6
21:35 1020 30.12 850 25.1 4.6 40.2 62 -2.1 28.2
21:40 1020 30.12 849 25.07 4.7 40.5 67 -0.9 30.3
21:45 1020 30.12 849 25.07 4.1 39.4 61 -2.7 27.2
21:50 1020 30.12 849 25.07 5.2 41.4 60 -1.8 28.8
21:55 1020 30.12 849 25.07 5.6 42.1 59 -1.8 28.7
22:00 1020 30.12 849 25.07 5 41.1 64 -1.2 29.8
22:05 1020 30.12 849 25.07 4.8 40.6 61 -2 28.4
22:10 1020 30.12 849 25.07 5 41 62 -1.6 29.2
22:15 1020 30.12 849 25.07 4.8 40.7 63 -1.6 29.1
22:20 1020 30.12 849 25.07 4.7 40.4 63 -1.9 28.7
22:25 1020 30.12 849 25.07 4.8 40.6 62 -1.8 28.7
22:30 1020 30.12 849 25.07 4.7 40.5 62 -1.9 28.5
22:35 1020 30.12 849 25.07 4.7 40.5 59 -2.5 27.4
22:40 1020 30.12 849 25.07 5.2 41.3 57 -2.7 27.2
22:45 1020 30.12 849 25.07 5.8 42.4 54 -2.8 26.9
22:50 1019 30.09 849 25.07 6 42.8 53 -2.7 27.1
22:55 1020 30.12 849 25.07 5.8 42.5 62 -0.9 30.4
23:00 1020 30.12 849 25.07 4.7 40.4 66 -1.1 30.1
23:05 1020 30.12 849 25.07 3.8 38.9 65 -2.1 28.3
23:10 1020 30.12 849 25.07 3.8 38.8 68 -1.6 29.2
23:15 1020 30.12 849 25.07 3.4 38.1 71 -1.3 29.6
23:20 1019 30.09 849 25.07 3.3 38 65 -2.5 27.4
23:25 1019 30.09 849 25.07 3.7 38.7 71 -1.1 30.1
23:30 1019 30.09 849 25.07 3.3 37.9 67 -2.2 28.1
23:35 1020 30.12 849 25.07 3.6 38.5 66 -2.2 28.1
23:40 1020 30.12 849 25.07 4.2 39.6 60 -2.8 27
23:45 1020 30.12 849 25.07 5 41 59 -2.3 27.9
23:50 1020 30.12 849 25.07 5.1 41.1 64 -1.1 30.1
23:55 1020 30.12 849 25.07 4.8 40.6 59 -2.5 27.5
24:00 1020 30.12 849 25.07 5.1 41.2 61 -1.7 28.9